createdAt,value
2023-05-27T00:00:35.714Z,37.10
2023-05-27T00:01:35.692Z,37.07
2023-05-27T00:02:35.827Z,37.09
2023-05-27T00:03:35.898Z,37.08
2023-05-27T00:04:35.737Z,37.06
2023-05-27T00:05:35.723Z,37.06
2023-05-27T00:06:35.762Z,37.03
2023-05-27T00:07:35.805Z,37.07
2023-05-27T00:08:35.844Z,37.07
2023-05-27T00:09:35.898Z,37.10
2023-05-27T00:10:35.955Z,37.13
2023-05-27T00:11:35.988Z,37.13
2023-05-27T00:12:36.032Z,37.12
2023-05-27T00:13:36.081Z,37.17
2023-05-27T00:14:36.098Z,37.16
2023-05-27T00:15:36.144Z,37.14
2023-05-27T00:16:36.196Z,37.13
2023-05-27T00:17:36.274Z,37.09
2023-05-27T00:18:36.301Z,37.13
2023-05-27T00:19:36.314Z,37.11
2023-05-27T00:20:36.472Z,37.14
2023-05-27T00:21:36.447Z,37.13
2023-05-27T00:22:36.499Z,37.13
2023-05-27T00:23:36.508Z,37.16
2023-05-27T00:24:36.518Z,37.09
2023-05-27T00:25:36.514Z,37.14
2023-05-27T00:26:36.537Z,37.12
2023-05-27T00:27:36.548Z,37.13
2023-05-27T00:28:36.505Z,37.15
2023-05-27T00:29:36.504Z,37.10
2023-05-27T00:30:36.533Z,37.11
2023-05-27T00:31:36.561Z,37.13
2023-05-27T00:32:36.555Z,37.08
2023-05-27T00:33:36.516Z,37.06
2023-05-27T00:34:36.546Z,37.13
2023-05-27T00:35:36.546Z,37.10
2023-05-27T00:36:36.525Z,37.11
2023-05-27T00:37:36.557Z,37.12
2023-05-27T00:38:36.522Z,37.13
2023-05-27T00:39:36.528Z,37.14
2023-05-27T00:40:37.386Z,37.18
2023-05-27T00:41:36.532Z,37.18
2023-05-27T00:42:36.533Z,37.15
2023-05-27T00:43:36.554Z,37.16
2023-05-27T00:44:36.555Z,37.15
2023-05-27T00:45:36.584Z,37.21
2023-05-27T00:46:36.664Z,37.17
2023-05-27T00:47:36.625Z,37.20
2023-05-27T00:48:36.583Z,37.23
2023-05-27T00:49:36.615Z,37.18
2023-05-27T00:50:36.567Z,37.18
2023-05-27T00:51:36.632Z,37.23
2023-05-27T00:52:36.591Z,37.15
2023-05-27T00:53:36.595Z,37.20
2023-05-27T00:54:36.618Z,37.21
2023-05-27T00:55:36.597Z,37.22
2023-05-27T00:56:36.628Z,37.22
2023-05-27T00:57:36.628Z,37.20
2023-05-27T00:58:36.649Z,37.21
2023-05-27T00:59:36.648Z,37.22
2023-05-27T01:00:36.628Z,37.23
2023-05-27T01:01:36.692Z,37.21
2023-05-27T01:02:36.759Z,37.20
2023-05-27T01:03:36.795Z,37.19
2023-05-27T01:04:36.657Z,37.22
2023-05-27T01:05:36.635Z,37.21
2023-05-27T01:06:36.636Z,37.15
2023-05-27T01:07:36.649Z,37.09
2023-05-27T01:08:36.614Z,37.08
2023-05-27T01:09:36.669Z,37.00
2023-05-27T01:10:36.633Z,36.99
2023-05-27T01:11:36.661Z,37.07
2023-05-27T01:12:36.653Z,37.07
2023-05-27T01:13:36.652Z,37.05
2023-05-27T01:14:36.649Z,37.04
2023-05-27T01:15:36.680Z,37.06
2023-05-27T01:16:36.727Z,36.95
2023-05-27T01:17:36.706Z,36.90
2023-05-27T01:18:36.764Z,36.97
2023-05-27T01:19:36.861Z,36.86
2023-05-27T01:20:36.950Z,36.95
2023-05-27T01:21:36.909Z,37.00
2023-05-27T01:22:36.921Z,36.93
2023-05-27T01:23:36.919Z,36.92
2023-05-27T01:24:36.917Z,36.99
2023-05-27T01:25:36.960Z,37.01
2023-05-27T01:26:36.973Z,37.04
2023-05-27T01:27:36.920Z,36.97
2023-05-27T01:28:36.992Z,36.96
2023-05-27T01:29:36.932Z,36.97
2023-05-27T01:30:36.939Z,36.98
2023-05-27T01:31:36.973Z,36.97
2023-05-27T01:32:36.999Z,36.99
2023-05-27T01:33:36.964Z,36.98
2023-05-27T01:34:36.972Z,36.99
2023-05-27T01:35:36.977Z,37.01
2023-05-27T01:36:36.986Z,37.00
2023-05-27T01:37:37.007Z,36.96
2023-05-27T01:38:37.082Z,37.00
2023-05-27T01:39:37.084Z,37.00
2023-05-27T01:40:37.144Z,37.02
2023-05-27T01:41:37.183Z,37.01
2023-05-27T01:42:37.286Z,36.99
2023-05-27T01:43:37.285Z,36.97
2023-05-27T01:44:37.335Z,37.02
2023-05-27T01:45:37.399Z,37.02
2023-05-27T01:46:37.502Z,37.02
2023-05-27T01:47:37.562Z,37.06
2023-05-27T01:48:37.530Z,37.02
2023-05-27T01:49:37.610Z,36.99
2023-05-27T01:50:37.708Z,37.01
2023-05-27T01:51:37.726Z,37.01
2023-05-27T01:52:37.732Z,37.00
2023-05-27T01:53:37.806Z,37.03
2023-05-27T01:54:37.852Z,37.00
2023-05-27T01:55:37.908Z,36.99
2023-05-27T01:56:37.951Z,37.02
2023-05-27T01:57:38.004Z,36.99
2023-05-27T01:58:38.038Z,37.03
2023-05-27T01:59:38.017Z,37.01
2023-05-27T02:00:38.106Z,37.02
2023-05-27T02:01:38.019Z,37.00
2023-05-27T02:02:38.055Z,36.99
2023-05-27T02:03:38.176Z,36.97
2023-05-27T02:04:38.083Z,37.00
2023-05-27T02:05:38.114Z,36.99
2023-05-27T02:06:38.161Z,36.99
2023-05-27T02:07:38.215Z,36.96
2023-05-27T02:08:38.264Z,36.97
2023-05-27T02:09:38.290Z,36.94
2023-05-27T02:10:38.416Z,36.93
2023-05-27T02:11:38.413Z,36.96
2023-05-27T02:12:38.483Z,36.94
2023-05-27T02:13:38.522Z,36.99
2023-05-27T02:14:38.697Z,36.98
2023-05-27T02:15:38.573Z,36.95
2023-05-27T02:16:38.664Z,36.95
2023-05-27T02:17:38.738Z,36.93
2023-05-27T02:18:38.740Z,36.95
2023-05-27T02:19:38.813Z,36.97
2023-05-27T02:20:38.958Z,36.95
2023-05-27T02:21:38.873Z,36.88
2023-05-27T02:22:38.891Z,36.89
2023-05-27T02:23:38.894Z,36.88
2023-05-27T02:24:38.890Z,36.94
2023-05-27T02:25:38.985Z,36.96
2023-05-27T02:26:39.065Z,36.95
2023-05-27T02:27:39.067Z,36.93
2023-05-27T02:28:39.144Z,36.95
2023-05-27T02:29:39.142Z,36.94
2023-05-27T02:30:39.256Z,36.95
2023-05-27T02:31:39.304Z,36.94
2023-05-27T02:32:39.386Z,36.98
2023-05-27T02:33:39.348Z,37.04
2023-05-27T02:34:39.418Z,37.00
2023-05-27T02:35:39.439Z,37.00
2023-05-27T02:36:39.521Z,37.01
2023-05-27T02:37:39.551Z,37.02
2023-05-27T02:38:39.599Z,37.03
2023-05-27T02:39:39.624Z,37.03
2023-05-27T02:40:39.671Z,37.02
2023-05-27T02:41:39.722Z,37.05
2023-05-27T02:42:39.805Z,37.07
2023-05-27T02:43:39.838Z,37.05
2023-05-27T02:44:39.856Z,37.09
2023-05-27T02:45:39.887Z,37.08
2023-05-27T02:46:39.907Z,37.10
2023-05-27T02:47:39.957Z,37.08
2023-05-27T02:48:39.896Z,37.08
2023-05-27T02:49:39.936Z,37.10
2023-05-27T02:50:39.998Z,37.11
2023-05-27T02:51:40.044Z,37.08
2023-05-27T02:52:40.062Z,37.08
2023-05-27T02:53:40.134Z,37.10
2023-05-27T02:54:40.177Z,37.07
2023-05-27T02:55:40.202Z,37.12
2023-05-27T02:56:40.260Z,37.12
2023-05-27T02:57:40.301Z,37.13
2023-05-27T02:58:40.384Z,37.13
2023-05-27T02:59:40.401Z,37.18
2023-05-27T03:00:40.448Z,37.17
2023-05-27T03:01:40.520Z,37.18
2023-05-27T03:02:40.563Z,37.19
2023-05-27T03:03:40.726Z,37.17
2023-05-27T03:04:40.637Z,37.16
2023-05-27T03:05:40.716Z,37.18
2023-05-27T03:06:40.758Z,37.18
2023-05-27T03:07:40.816Z,37.17
2023-05-27T03:08:40.852Z,37.22
2023-05-27T03:09:40.903Z,37.19
2023-05-27T03:10:40.916Z,37.20
2023-05-27T03:11:40.991Z,37.23
2023-05-27T03:12:41.064Z,37.19
2023-05-27T03:13:41.089Z,37.23
2023-05-27T03:14:41.152Z,37.22
2023-05-27T03:15:41.227Z,37.21
2023-05-27T03:16:41.302Z,37.24
2023-05-27T03:17:41.336Z,37.24
2023-05-27T03:18:41.366Z,37.24
2023-05-27T03:19:41.370Z,37.25
2023-05-27T03:20:41.551Z,37.26
2023-05-27T03:21:41.478Z,37.28
2023-05-27T03:22:41.516Z,37.30
2023-05-27T03:23:41.560Z,37.25
2023-05-27T03:24:41.628Z,37.27
2023-05-27T03:25:41.724Z,37.27
2023-05-27T03:26:41.702Z,37.26
2023-05-27T03:27:41.788Z,37.26
2023-05-27T03:28:41.814Z,37.25
2023-05-27T03:29:41.846Z,37.25
2023-05-27T03:30:41.912Z,37.29
2023-05-27T03:31:41.963Z,37.31
2023-05-27T03:32:42.052Z,37.28
2023-05-27T03:33:42.020Z,37.32
2023-05-27T03:34:42.072Z,37.30
2023-05-27T03:35:42.099Z,37.31
2023-05-27T03:36:42.139Z,37.31
2023-05-27T03:37:42.221Z,37.34
2023-05-27T03:38:42.244Z,37.33
2023-05-27T03:39:42.312Z,37.31
2023-05-27T03:40:42.348Z,37.33
2023-05-27T03:41:42.387Z,37.33
2023-05-27T03:42:42.425Z,37.31
2023-05-27T03:43:42.421Z,37.34
2023-05-27T03:44:42.433Z,37.32
2023-05-27T03:45:42.526Z,37.32
2023-05-27T03:46:42.504Z,37.32
2023-05-27T03:47:42.539Z,37.31
2023-05-27T03:48:42.548Z,37.30
2023-05-27T03:49:42.599Z,37.31
2023-05-27T03:50:43.743Z,37.27
2023-05-27T03:51:42.743Z,37.28
2023-05-27T03:52:42.691Z,37.26
2023-05-27T03:53:42.695Z,37.28
2023-05-27T03:54:42.709Z,37.29
2023-05-27T03:55:42.776Z,37.28
2023-05-27T03:56:42.831Z,37.28
2023-05-27T03:57:42.879Z,37.29
2023-05-27T03:58:44.413Z,37.29
2023-05-27T03:59:42.904Z,37.26
2023-05-27T04:00:42.894Z,37.27
2023-05-27T04:01:42.897Z,37.25
2023-05-27T04:02:42.892Z,37.25
2023-05-27T04:03:42.946Z,37.25
2023-05-27T04:04:42.942Z,37.24
2023-05-27T04:05:42.882Z,37.20
2023-05-27T04:06:42.850Z,37.20
2023-05-27T04:07:42.858Z,37.20
2023-05-27T04:08:42.838Z,37.20
2023-05-27T04:09:42.849Z,37.18
2023-05-27T04:10:42.825Z,37.18
2023-05-27T04:11:42.821Z,37.15
2023-05-27T04:12:42.821Z,37.12
2023-05-27T04:13:42.815Z,37.10
2023-05-27T04:14:42.774Z,37.10
2023-05-27T04:15:42.771Z,37.02
2023-05-27T04:16:42.872Z,36.91
2023-05-27T04:17:42.864Z,36.91
2023-05-27T04:18:42.777Z,36.85
2023-05-27T04:19:42.793Z,36.80
2023-05-27T04:20:42.840Z,36.77
2023-05-27T04:21:42.735Z,36.83
2023-05-27T04:22:42.771Z,36.72
2023-05-27T04:23:42.716Z,36.81
2023-05-27T04:24:42.716Z,36.84
2023-05-27T04:25:42.745Z,36.83
2023-05-27T04:26:42.715Z,36.88
2023-05-27T04:27:42.729Z,36.91
2023-05-27T04:28:42.686Z,36.94
2023-05-27T04:29:42.716Z,36.97
2023-05-27T04:30:42.700Z,36.94
2023-05-27T04:31:42.782Z,36.97
2023-05-27T04:32:42.667Z,36.96
2023-05-27T04:33:42.684Z,36.95
2023-05-27T04:34:42.692Z,36.97
2023-05-27T04:35:42.674Z,36.98
2023-05-27T04:36:42.690Z,37.01
2023-05-27T04:37:42.647Z,36.95
2023-05-27T04:38:42.642Z,36.94
2023-05-27T04:39:42.643Z,36.93
2023-05-27T04:40:42.637Z,36.94
2023-05-27T04:41:42.652Z,36.95
2023-05-27T04:42:42.612Z,36.95
2023-05-27T04:43:42.614Z,36.99
2023-05-27T04:44:42.595Z,36.95
2023-05-27T04:45:42.599Z,36.94
2023-05-27T04:46:42.670Z,36.93
2023-05-27T04:47:42.595Z,36.93
2023-05-27T04:48:42.578Z,36.94
2023-05-27T04:49:42.549Z,36.94
2023-05-27T04:50:42.531Z,36.96
2023-05-27T04:51:42.567Z,36.95
2023-05-27T04:52:42.573Z,36.95
2023-05-27T04:53:42.545Z,36.96
2023-05-27T04:54:42.579Z,36.94
2023-05-27T04:55:42.774Z,36.98
2023-05-27T04:56:42.535Z,36.94
2023-05-27T04:57:42.633Z,36.95
2023-05-27T04:58:42.519Z,36.97
2023-05-27T04:59:42.498Z,37.00
2023-05-27T05:00:42.520Z,37.01
2023-05-27T05:01:42.621Z,36.97
2023-05-27T05:02:42.669Z,36.96
2023-05-27T05:03:42.705Z,36.99
2023-05-27T05:04:42.719Z,36.99
2023-05-27T05:05:42.739Z,36.96
2023-05-27T05:06:42.773Z,36.94
2023-05-27T05:07:42.802Z,36.97
2023-05-27T05:08:42.808Z,36.96
2023-05-27T05:09:42.805Z,36.98
2023-05-27T05:10:42.835Z,36.99
2023-05-27T05:11:42.848Z,36.99
2023-05-27T05:12:42.899Z,37.00
2023-05-27T05:13:42.902Z,36.99
2023-05-27T05:14:42.955Z,37.01
2023-05-27T05:15:43.021Z,37.02
2023-05-27T05:16:43.084Z,36.99
2023-05-27T05:17:43.124Z,37.03
2023-05-27T05:18:43.127Z,36.99
2023-05-27T05:19:43.172Z,37.00
2023-05-27T05:20:43.305Z,36.99
2023-05-27T05:21:43.239Z,37.00
2023-05-27T05:22:43.295Z,37.05
2023-05-27T05:23:43.329Z,37.03
2023-05-27T05:24:43.373Z,37.01
2023-05-27T05:25:43.394Z,37.02
2023-05-27T05:26:43.436Z,37.02
2023-05-27T05:27:43.450Z,37.02
2023-05-27T05:28:43.529Z,37.01
2023-05-27T05:29:43.540Z,37.03
2023-05-27T05:30:43.582Z,37.01
2023-05-27T05:31:43.651Z,37.02
2023-05-27T05:32:43.689Z,37.02
2023-05-27T05:33:43.707Z,37.00
2023-05-27T05:34:43.753Z,36.94
2023-05-27T05:35:43.786Z,36.90
2023-05-27T05:36:43.815Z,36.88
2023-05-27T05:37:43.865Z,36.87
2023-05-27T05:38:43.886Z,36.84
2023-05-27T05:39:43.964Z,36.88
2023-05-27T05:40:43.956Z,36.88
2023-05-27T05:41:44.024Z,36.88
2023-05-27T05:42:44.078Z,36.91
2023-05-27T05:43:44.082Z,36.87
2023-05-27T05:44:44.140Z,36.91
2023-05-27T05:45:44.153Z,36.93
2023-05-27T05:46:44.227Z,36.94
2023-05-27T05:47:44.179Z,36.89
2023-05-27T05:48:44.157Z,36.90
2023-05-27T05:49:44.141Z,36.89
2023-05-27T05:50:44.160Z,36.90
2023-05-27T05:51:44.138Z,36.88
2023-05-27T05:52:44.141Z,36.95
2023-05-27T05:53:44.130Z,36.93
2023-05-27T05:54:44.150Z,36.91
2023-05-27T05:55:44.212Z,36.90
2023-05-27T05:56:44.271Z,36.88
2023-05-27T05:57:44.283Z,36.89
2023-05-27T05:58:44.323Z,36.88
2023-05-27T05:59:44.389Z,36.90
2023-05-27T06:00:44.399Z,36.88
2023-05-27T06:01:44.506Z,36.82
2023-05-27T06:02:44.616Z,36.87
2023-05-27T06:03:44.806Z,36.90
2023-05-27T06:04:44.596Z,36.85
2023-05-27T06:05:44.649Z,36.84
2023-05-27T06:06:44.664Z,36.87
2023-05-27T06:07:44.709Z,36.88
2023-05-27T06:08:44.765Z,36.87
2023-05-27T06:09:44.787Z,36.85
2023-05-27T06:10:44.833Z,36.79
2023-05-27T06:11:44.914Z,36.78
2023-05-27T06:12:44.917Z,36.79
2023-05-27T06:13:44.970Z,36.81
2023-05-27T06:14:45.001Z,36.82
2023-05-27T06:15:45.042Z,36.85
2023-05-27T06:16:45.086Z,36.90
2023-05-27T06:17:45.180Z,36.87
2023-05-27T06:18:45.169Z,36.85
2023-05-27T06:19:45.224Z,36.85
2023-05-27T06:20:45.312Z,36.85
2023-05-27T06:21:45.292Z,36.83
2023-05-27T06:22:45.310Z,36.85
2023-05-27T06:23:45.373Z,36.86
2023-05-27T06:24:45.388Z,36.82
2023-05-27T06:25:45.388Z,36.85
2023-05-27T06:26:45.408Z,36.81
2023-05-27T06:27:45.362Z,36.78
2023-05-27T06:28:45.400Z,36.82
2023-05-27T06:29:45.443Z,36.80
2023-05-27T06:30:45.382Z,36.78
2023-05-27T06:31:45.393Z,36.80
2023-05-27T06:32:45.402Z,36.80
2023-05-27T06:33:45.391Z,36.81
2023-05-27T06:34:45.428Z,36.81
2023-05-27T06:35:45.408Z,36.75
2023-05-27T06:36:45.453Z,36.75
2023-05-27T06:37:47.395Z,36.78
2023-05-27T06:38:45.408Z,36.73
2023-05-27T06:39:45.421Z,36.74
2023-05-27T06:40:45.417Z,36.71
2023-05-27T06:41:45.408Z,36.71
2023-05-27T06:42:45.405Z,36.73
2023-05-27T06:43:45.361Z,36.74
2023-05-27T06:44:45.371Z,36.76
2023-05-27T06:45:59.458Z,36.73
2023-05-27T06:46:46.379Z,36.68
2023-05-27T06:47:45.400Z,36.63
2023-05-27T06:48:45.348Z,36.68
2023-05-27T06:49:45.349Z,36.64
2023-05-27T06:50:45.323Z,36.59
2023-05-27T06:51:45.325Z,36.64
2023-05-27T06:52:45.331Z,36.64
2023-05-27T06:53:45.307Z,36.58
2023-05-27T06:54:45.438Z,36.55
2023-05-27T06:55:45.286Z,36.57
2023-05-27T06:56:45.295Z,36.55
2023-05-27T06:57:45.302Z,36.53
2023-05-27T06:58:45.253Z,36.52
2023-05-27T06:59:45.262Z,36.52
2023-05-27T07:00:45.253Z,36.55
2023-05-27T07:01:45.402Z,36.55
2023-05-27T07:02:45.336Z,36.53
2023-05-27T07:03:45.297Z,36.59
2023-05-27T07:04:45.344Z,36.58
2023-05-27T07:05:45.424Z,36.64
2023-05-27T07:06:45.434Z,36.61
2023-05-27T07:07:45.460Z,36.62
2023-05-27T07:08:45.459Z,36.63
2023-05-27T07:09:45.513Z,36.62
2023-05-27T07:10:45.546Z,36.62
2023-05-27T07:11:45.554Z,36.62
2023-05-27T07:12:45.616Z,36.63
2023-05-27T07:13:45.634Z,36.63
2023-05-27T07:14:45.690Z,36.61
2023-05-27T07:15:45.755Z,36.62
2023-05-27T07:16:45.734Z,36.63
2023-05-27T07:17:45.824Z,36.64
2023-05-27T07:18:45.818Z,36.66
2023-05-27T07:19:45.883Z,36.61
2023-05-27T07:20:46.094Z,36.62
2023-05-27T07:21:45.962Z,36.63
2023-05-27T07:22:46.048Z,36.62
2023-05-27T07:23:46.073Z,36.61
2023-05-27T07:24:46.162Z,36.58
2023-05-27T07:25:46.191Z,36.51
2023-05-27T07:26:46.278Z,36.42
2023-05-27T07:27:46.325Z,36.37
2023-05-27T07:28:46.304Z,36.41
2023-05-27T07:29:46.312Z,36.40
2023-05-27T07:30:46.366Z,36.43
2023-05-27T07:31:46.445Z,36.41
2023-05-27T07:32:46.917Z,36.38
2023-05-27T07:33:46.473Z,36.30
2023-05-27T07:34:46.456Z,36.29
2023-05-27T07:35:46.441Z,36.27
2023-05-27T07:36:46.479Z,36.33
2023-05-27T07:37:46.450Z,36.37
2023-05-27T07:38:46.428Z,36.38
2023-05-27T07:39:46.467Z,36.40
2023-05-27T07:40:46.426Z,36.36
2023-05-27T07:41:46.428Z,36.40
2023-05-27T07:42:46.424Z,36.34
2023-05-27T07:43:46.399Z,36.33
2023-05-27T07:44:46.385Z,36.30
2023-05-27T07:45:46.414Z,36.26
2023-05-27T07:46:46.414Z,36.28
2023-05-27T07:47:46.409Z,36.29
2023-05-27T07:48:46.354Z,36.32
2023-05-27T07:49:46.372Z,36.32
2023-05-27T07:50:46.332Z,36.29
2023-05-27T07:51:46.341Z,36.24
2023-05-27T07:52:46.386Z,36.27
2023-05-27T07:53:46.351Z,36.23
2023-05-27T07:54:54.424Z,36.18
2023-05-27T07:55:47.329Z,36.23
2023-05-27T07:56:46.328Z,36.20
2023-05-27T07:57:46.314Z,36.17
2023-05-27T07:58:46.321Z,36.17
2023-05-27T07:59:46.327Z,36.14
2023-05-27T08:00:46.369Z,36.12
2023-05-27T08:01:46.286Z,36.10
2023-05-27T08:02:46.360Z,36.15
2023-05-27T08:03:46.356Z,36.12
2023-05-27T08:04:46.567Z,36.13
2023-05-27T08:05:46.247Z,36.10
2023-05-27T08:06:46.317Z,36.07
2023-05-27T08:07:46.325Z,36.05
2023-05-27T08:08:46.389Z,36.03
2023-05-27T08:09:46.426Z,36.01
2023-05-27T08:10:46.442Z,36.01
2023-05-27T08:11:46.509Z,36.00
2023-05-27T08:12:46.563Z,35.96
2023-05-27T08:13:46.575Z,35.97
2023-05-27T08:14:46.624Z,35.94
2023-05-27T08:15:46.671Z,35.96
2023-05-27T08:16:46.698Z,35.97
2023-05-27T08:17:46.810Z,35.96
2023-05-27T08:18:46.833Z,35.91
2023-05-27T08:19:46.800Z,35.89
2023-05-27T08:20:46.922Z,35.86
2023-05-27T08:21:46.884Z,35.84
2023-05-27T08:22:46.886Z,35.82
2023-05-27T08:23:46.980Z,35.80
2023-05-27T08:24:46.965Z,35.78
2023-05-27T08:25:47.001Z,35.67
2023-05-27T08:26:47.023Z,35.56
2023-05-27T08:27:47.056Z,35.56
2023-05-27T08:28:47.065Z,35.53
2023-05-27T08:29:47.075Z,35.51
2023-05-27T08:30:47.140Z,35.52
2023-05-27T08:31:47.335Z,35.51
2023-05-27T08:32:47.766Z,35.55
2023-05-27T08:33:47.180Z,35.49
2023-05-27T08:34:47.234Z,35.48
2023-05-27T08:35:47.265Z,35.45
2023-05-27T08:36:47.293Z,35.37
2023-05-27T08:37:47.287Z,35.36
2023-05-27T08:38:47.336Z,35.35
2023-05-27T08:39:47.335Z,35.36
2023-05-27T08:40:47.336Z,35.35
2023-05-27T08:41:47.382Z,35.21
2023-05-27T08:42:47.424Z,35.25
2023-05-27T08:43:47.460Z,34.99
2023-05-27T08:44:47.455Z,34.93
2023-05-27T08:45:47.516Z,35.02
2023-05-27T08:46:47.614Z,35.01
2023-05-27T08:47:47.571Z,34.98
2023-05-27T08:48:47.555Z,34.91
2023-05-27T08:49:47.588Z,34.94
2023-05-27T08:50:47.572Z,34.75
2023-05-27T08:51:47.718Z,34.77
2023-05-27T08:52:47.636Z,34.80
2023-05-27T08:53:47.671Z,34.73
2023-05-27T08:54:47.661Z,34.62
2023-05-27T08:55:47.738Z,34.71
2023-05-27T08:56:47.731Z,34.76
2023-05-27T08:57:47.750Z,34.73
2023-05-27T08:58:47.745Z,34.72
2023-05-27T08:59:47.765Z,34.69
2023-05-27T09:00:47.925Z,34.66
2023-05-27T09:01:47.839Z,34.68
2023-05-27T09:02:47.873Z,34.67
2023-05-27T09:03:47.850Z,34.65
2023-05-27T09:04:47.861Z,34.61
2023-05-27T09:05:47.870Z,34.60
2023-05-27T09:06:47.892Z,34.61
2023-05-27T09:07:47.922Z,34.59
2023-05-27T09:08:51.143Z,34.58
2023-05-27T09:09:47.970Z,34.56
2023-05-27T09:10:48.035Z,34.55
2023-05-27T09:11:47.916Z,34.52
2023-05-27T09:12:47.940Z,34.51
2023-05-27T09:13:47.917Z,34.54
2023-05-27T09:14:47.906Z,34.51
2023-05-27T09:15:47.933Z,34.51
2023-05-27T09:16:47.960Z,34.52
2023-05-27T09:17:47.933Z,34.53
2023-05-27T09:18:48.000Z,34.46
2023-05-27T09:19:47.875Z,34.47
2023-05-27T09:20:48.022Z,34.52
2023-05-27T09:21:47.875Z,34.53
2023-05-27T09:22:47.862Z,34.56
2023-05-27T09:23:47.868Z,34.64
2023-05-27T09:24:47.858Z,34.67
2023-05-27T09:25:47.836Z,34.69
2023-05-27T09:26:47.864Z,34.66
2023-05-27T09:27:47.814Z,34.67
2023-05-27T09:28:47.797Z,34.68
2023-05-27T09:29:47.816Z,34.71
2023-05-27T09:30:47.922Z,34.74
2023-05-27T09:31:47.825Z,34.79
2023-05-27T09:32:47.872Z,34.81
2023-05-27T09:33:47.803Z,34.81
2023-05-27T09:34:47.800Z,34.78
2023-05-27T09:35:47.749Z,34.79
2023-05-27T09:36:47.789Z,34.79
2023-05-27T09:37:47.772Z,34.81
2023-05-27T09:38:47.752Z,34.83
2023-05-27T09:39:48.280Z,34.89
2023-05-27T09:40:47.753Z,34.90
2023-05-27T09:41:47.756Z,34.94
2023-05-27T09:42:47.715Z,34.91
2023-05-27T09:43:47.725Z,34.89
2023-05-27T09:44:47.701Z,34.90
2023-05-27T09:45:47.753Z,34.93
2023-05-27T09:46:47.738Z,34.94
2023-05-27T09:47:47.790Z,34.96
2023-05-27T09:48:47.674Z,34.95
2023-05-27T09:50:47.708Z,35.03
2023-05-27T09:51:47.681Z,35.04
2023-05-27T09:52:59.157Z,35.12
2023-05-27T09:53:48.677Z,35.16
2023-05-27T09:54:47.653Z,35.01
2023-05-27T09:55:47.649Z,34.93
2023-05-27T09:56:47.673Z,34.88
2023-05-27T09:57:47.645Z,34.73
2023-05-27T09:58:47.638Z,34.63
2023-05-27T09:59:47.614Z,34.69
2023-05-27T10:00:47.615Z,34.69
2023-05-27T10:01:47.665Z,34.75
2023-05-27T10:02:47.614Z,34.80
2023-05-27T10:03:47.602Z,34.78
2023-05-27T10:04:47.650Z,34.81
2023-05-27T10:05:47.623Z,34.82
2023-05-27T10:06:47.595Z,34.82
2023-05-27T10:08:08.806Z,34.81
2023-05-27T10:08:48.588Z,34.74
2023-05-27T10:09:49.155Z,34.78
2023-05-27T10:10:47.593Z,34.73
2023-05-27T10:11:47.560Z,34.71
2023-05-27T10:12:47.574Z,34.59
2023-05-27T10:13:47.571Z,34.19
2023-05-27T10:14:47.557Z,34.12
2023-05-27T10:15:47.539Z,33.90
2023-05-27T10:16:47.615Z,33.82
2023-05-27T10:17:47.536Z,33.92
2023-05-27T10:18:47.515Z,33.62
2023-05-27T10:19:47.506Z,33.65
2023-05-27T10:20:47.591Z,33.61
2023-05-27T10:21:47.488Z,33.61
2023-05-27T10:22:47.474Z,33.52
2023-05-27T10:23:47.513Z,32.91
2023-05-27T10:24:47.494Z,32.96
2023-05-27T10:25:47.544Z,32.62
2023-05-27T10:26:47.544Z,32.73
2023-05-27T10:27:47.588Z,32.68
2023-05-27T10:28:47.624Z,32.57
2023-05-27T10:29:47.642Z,32.52
2023-05-27T10:30:47.671Z,32.57
2023-05-27T10:31:50.959Z,32.56
2023-05-27T10:32:48.827Z,32.63
2023-05-27T10:33:47.699Z,32.47
2023-05-27T10:34:47.700Z,32.38
2023-05-27T10:35:47.669Z,31.47
2023-05-27T10:36:47.676Z,31.43
2023-05-27T10:37:47.671Z,31.93
2023-05-27T10:38:47.641Z,31.80
2023-05-27T10:39:47.637Z,31.68
2023-05-27T10:40:47.634Z,31.48
2023-05-27T10:41:47.629Z,31.29
2023-05-27T10:42:47.606Z,31.37
2023-05-27T10:43:47.617Z,31.36
2023-05-27T10:44:47.632Z,31.39
2023-05-27T10:45:47.684Z,31.35
2023-05-27T10:46:47.647Z,31.34
2023-05-27T10:47:47.662Z,31.27
2023-05-27T10:48:47.615Z,31.29
2023-05-27T10:49:47.573Z,31.21
2023-05-27T10:50:47.636Z,31.24
2023-05-27T10:51:47.582Z,30.94
2023-05-27T10:52:47.696Z,30.91
2023-05-27T10:53:50.684Z,30.92
2023-05-27T10:54:48.578Z,30.91
2023-05-27T10:55:47.550Z,30.81
2023-05-27T10:56:47.559Z,30.80
2023-05-27T10:57:47.530Z,30.63
2023-05-27T10:58:47.559Z,30.66
2023-05-27T10:59:47.545Z,29.91
2023-05-27T11:00:47.525Z,30.45
2023-05-27T11:01:47.527Z,30.43
2023-05-27T11:02:47.604Z,30.38
2023-05-27T11:03:47.709Z,30.33
2023-05-27T11:04:47.501Z,30.29
2023-05-27T11:05:47.506Z,30.40
2023-05-27T11:06:47.494Z,30.14
2023-05-27T11:07:47.467Z,30.10
2023-05-27T11:08:47.477Z,30.26
2023-05-27T11:09:47.511Z,30.41
2023-05-27T11:10:47.580Z,30.38
2023-05-27T11:11:47.608Z,30.03
2023-05-27T11:12:47.629Z,30.10
2023-05-27T11:13:48.808Z,30.40
2023-05-27T11:14:47.746Z,30.45
2023-05-27T11:15:47.833Z,30.40
2023-05-27T11:16:47.837Z,30.20
2023-05-27T11:17:47.911Z,30.13
2023-05-27T11:18:47.918Z,30.06
2023-05-27T11:19:47.981Z,30.03
2023-05-27T11:20:48.074Z,29.93
2023-05-27T11:21:47.994Z,29.94
2023-05-27T11:22:48.004Z,29.94
2023-05-27T11:23:48.026Z,29.95
2023-05-27T11:24:47.992Z,29.86
2023-05-27T11:25:48.000Z,29.66
2023-05-27T11:26:47.997Z,29.37
2023-05-27T11:27:48.002Z,29.43
2023-05-27T11:28:48.007Z,29.64
2023-05-27T11:29:47.991Z,29.47
2023-05-27T11:30:49.939Z,29.56
2023-05-27T11:31:48.043Z,29.51
2023-05-27T11:32:49.235Z,29.43
2023-05-27T11:33:48.081Z,29.42
2023-05-27T11:34:48.011Z,29.38
2023-05-27T11:35:48.042Z,29.39
2023-05-27T11:36:47.967Z,29.24
2023-05-27T11:37:47.979Z,29.26
2023-05-27T11:38:50.280Z,29.13
2023-05-27T11:39:47.937Z,29.12
2023-05-27T11:40:47.962Z,29.18
2023-05-27T11:41:47.916Z,29.05
2023-05-27T11:42:48.068Z,28.71
2023-05-27T11:43:47.920Z,28.85
2023-05-27T11:44:47.894Z,29.18
2023-05-27T11:45:47.976Z,29.27
2023-05-27T11:46:47.908Z,29.07
2023-05-27T11:47:47.928Z,28.35
2023-05-27T11:48:47.887Z,28.36
2023-05-27T11:49:47.911Z,28.61
2023-05-27T11:50:47.892Z,28.56
2023-05-27T11:51:47.893Z,28.45
2023-05-27T11:52:47.879Z,28.39
2023-05-27T11:53:47.905Z,28.07
2023-05-27T11:54:57.316Z,28.33
2023-05-27T11:55:49.043Z,28.39
2023-05-27T11:56:47.857Z,28.02
2023-05-27T11:57:47.841Z,28.01
2023-05-27T11:58:47.839Z,27.60
2023-05-27T11:59:47.823Z,27.46
2023-05-27T12:00:47.827Z,27.82
2023-05-27T12:01:47.807Z,27.99
2023-05-27T12:02:47.967Z,27.92
2023-05-27T12:03:47.787Z,27.83
2023-05-27T12:04:47.814Z,27.75
2023-05-27T12:05:47.853Z,27.71
2023-05-27T12:06:47.798Z,27.77
2023-05-27T12:07:48.693Z,27.68
2023-05-27T12:08:47.894Z,27.65
2023-05-27T12:09:47.964Z,27.75
2023-05-27T12:10:47.987Z,27.75
2023-05-27T12:11:48.048Z,27.79
2023-05-27T12:12:48.113Z,27.92
2023-05-27T12:13:48.143Z,27.89
2023-05-27T12:14:48.211Z,27.83
2023-05-27T12:15:48.378Z,27.81
2023-05-27T12:16:48.267Z,27.73
2023-05-27T12:17:48.371Z,27.75
2023-05-27T12:18:48.400Z,27.80
2023-05-27T12:19:48.400Z,27.86
2023-05-27T12:20:48.527Z,27.88
2023-05-27T12:21:48.482Z,27.96
2023-05-27T12:22:48.530Z,27.83
2023-05-27T12:23:48.581Z,27.77
2023-05-27T12:24:48.598Z,27.71
2023-05-27T12:25:48.812Z,27.61
2023-05-27T12:26:48.669Z,27.75
2023-05-27T12:27:48.756Z,28.00
2023-05-27T12:28:48.817Z,27.93
2023-05-27T12:29:48.881Z,27.75
2023-05-27T12:30:48.906Z,27.74
2023-05-27T12:31:48.908Z,27.80
2023-05-27T12:32:48.922Z,27.74
2023-05-27T12:33:48.909Z,27.74
2023-05-27T12:34:48.933Z,27.76
2023-05-27T12:35:49.098Z,27.72
2023-05-27T12:36:48.981Z,27.34
2023-05-27T12:37:49.000Z,27.49
2023-05-27T12:38:48.971Z,27.52
2023-05-27T12:39:48.995Z,27.57
2023-05-27T12:40:49.038Z,27.54
2023-05-27T12:41:49.038Z,27.69
2023-05-27T12:42:49.034Z,27.73
2023-05-27T12:43:49.066Z,27.60
2023-05-27T12:44:49.068Z,27.53
2023-05-27T12:45:49.375Z,27.61
2023-05-27T12:46:49.163Z,27.66
2023-05-27T12:47:49.146Z,27.64
2023-05-27T12:48:49.127Z,27.62
2023-05-27T12:49:49.136Z,27.63
2023-05-27T12:50:49.147Z,27.66
2023-05-27T12:51:49.182Z,27.64
2023-05-27T12:52:49.253Z,27.58
2023-05-27T12:53:49.226Z,27.52